Time;durP1;ratioP1;P1;durP2;ratioP2;P2;SDS_P1;SDS_P2;PMS_P1;PMS_P2;Temp;Humidity;BMP_temperature;BMP_pressure;BME280_temperature;BME280_humidity;BME280_pressure;Samples;Min_cycle;Max_cycle;Signal;HPM_P1;HPM_P2
2023/06/24 00:02:11;;;;;;;2.00;0.95;;;;;;;20.62;65.53;100589.25;5066179;28;20037;-69
2023/06/24 00:04:37;;;;;;;2.03;1.00;;;;;;;20.67;64.61;100595.53;5066138;28;20024;-70
2023/06/24 00:07:02;;;;;;;1.60;0.93;;;;;;;20.75;63.08;100595.31;5069815;28;20138;-68
2023/06/24 00:09:28;;;;;;;1.15;0.82;;;;;;;20.79;64.36;100591.25;5070017;28;20115;-70
2023/06/24 00:12:00;;;;;;;3.67;1.23;;;;;;;20.96;59.93;100580.97;5065317;28;20032;-70
2023/06/24 00:14:26;;;;;;;4.90;0.95;;;;;;;21.14;59.68;100578.47;5065666;28;20062;-70
2023/06/24 00:16:56;;;;;;;1.80;1.17;;;;;;;21.05;60.98;100576.25;5068029;28;20048;-70
2023/06/24 00:19:26;;;;;;;2.70;1.23;;;;;;;20.96;61.88;100577.50;5061789;28;20037;-69
2023/06/24 00:21:53;;;;;;;2.45;0.95;;;;;;;20.85;62.30;100585.09;5053208;28;20044;-69
2023/06/24 00:24:25;;;;;;;1.38;0.85;;;;;;;20.78;62.89;100579.03;5064155;28;20094;-70
2023/06/24 00:26:54;;;;;;;2.47;1.10;;;;;;;20.71;63.89;100585.34;5071745;28;20037;-68
2023/06/24 00:29:20;;;;;;;1.88;0.98;;;;;;;20.65;63.61;100578.22;5062220;28;20035;-69
2023/06/24 00:31:46;;;;;;;1.60;0.90;;;;;;;20.68;63.39;100578.63;5058869;28;20434;-69
2023/06/24 00:34:11;;;;;;;1.95;0.93;;;;;;;20.63;63.69;100578.44;5053664;28;20124;-70
2023/06/24 00:36:37;;;;;;;8.43;1.00;;;;;;;20.61;62.71;100564.59;5071019;28;20036;-69
2023/06/24 00:39:03;;;;;;;2.00;1.10;;;;;;;20.74;62.40;100577.81;5059679;28;20117;-70
2023/06/24 00:41:30;;;;;;;1.77;0.82;;;;;;;20.74;62.45;100561.94;5058188;28;20455;-69
2023/06/24 00:43:57;;;;;;;1.95;0.80;;;;;;;20.71;62.93;100567.63;5058057;28;20048;-69
2023/06/24 00:46:25;;;;;;;2.78;1.00;;;;;;;20.60;62.47;100565.63;5067602;28;20040;-70
2023/06/24 00:48:52;;;;;;;1.92;1.10;;;;;;;20.58;62.90;100559.72;5064644;28;20372;-70
2023/06/24 00:51:19;;;;;;;2.08;1.10;;;;;;;20.58;61.30;100559.72;5062652;28;20093;-69
2023/06/24 00:53:45;;;;;;;1.20;0.70;;;;;;;20.67;61.52;100561.13;5061888;28;20036;-70
2023/06/24 00:56:13;;;;;;;2.75;1.27;;;;;;;20.63;60.67;100565.22;5064657;28;20079;-69
2023/06/24 00:58:39;;;;;;;2.40;1.08;;;;;;;20.67;59.91;100569.06;5065094;28;20040;-70
2023/06/24 01:01:08;;;;;;;5.53;0.98;;;;;;;20.81;59.18;100557.41;5062679;28;20039;-69
2023/06/24 01:03:36;;;;;;;1.30;0.77;;;;;;;20.72;59.35;100566.63;5059839;28;20059;-70
2023/06/24 01:06:02;;;;;;;2.00;0.90;;;;;;;20.75;59.93;100562.75;5059209;28;20033;-70
2023/06/24 01:08:28;;;;;;;3.58;1.30;;;;;;;20.81;57.57;100564.53;5060957;28;20487;-69
2023/06/24 01:10:54;;;;;;;1.27;0.88;;;;;;;20.92;58.46;100560.41;5065830;28;20053;-69
2023/06/24 01:13:20;;;;;;;1.45;0.93;;;;;;;20.80;58.08;100566.34;5057288;28;20044;-70
2023/06/24 01:15:46;;;;;;;4.22;1.08;;;;;;;20.80;59.22;100581.44;5062535;28;20101;-70
2023/06/24 01:18:23;;;;;;;1.60;1.00;;;;;;;20.80;59.42;100576.94;5066758;28;20043;-70
2023/06/24 01:20:52;;;;;;;2.45;0.82;;;;;;;20.70;59.99;100583.72;5064896;28;20060;-69
2023/06/24 01:23:39;;;;;;;7.25;1.48;;;;;;;20.61;59.11;100587.59;5066985;28;20175;-70
2023/06/24 01:26:42;;;;;;;3.30;1.15;;;;;;;20.67;57.20;100598.19;5061165;28;20089;-69
2023/06/24 01:29:46;;;;;;;3.38;0.90;;;;;;;20.83;55.70;100597.72;5063946;28;20045;-70
2023/06/24 01:32:30;;;;;;;1.80;1.38;;;;;;;21.06;55.85;100602.53;5064597;28;20036;-70
2023/06/24 01:35:15;;;;;;;1.00;0.70;;;;;;;21.17;55.29;100603.72;5062617;28;20055;-69
2023/06/24 01:37:50;;;;;;;1.95;1.48;;;;;;;21.16;55.88;100615.34;5066353;28;20056;-69
2023/06/24 01:40:32;;;;;;;4.30;1.25;;;;;;;21.20;56.20;100613.91;5063102;28;20127;-69
2023/06/24 01:43:03;;;;;;;2.67;1.40;;;;;;;21.09;55.60;100620.66;5058335;28;20044;-70
2023/06/24 01:45:32;;;;;;;4.95;0.95;;;;;;;21.03;56.62;100618.03;5064222;28;20366;-70
2023/06/24 01:48:06;;;;;;;2.28;1.08;;;;;;;20.91;58.27;100619.69;5063998;28;20091;-70
2023/06/24 01:50:34;;;;;;;3.08;0.73;;;;;;;20.80;59.80;100621.97;5065537;28;20063;-70
2023/06/24 01:53:05;;;;;;;1.80;0.88;;;;;;;20.65;60.74;100621.41;5069524;28;20443;-70
2023/06/24 01:55:32;;;;;;;4.05;1.27;;;;;;;20.59;60.03;100629.34;5064087;28;20124;-70
2023/06/24 01:57:59;;;;;;;2.47;0.73;;;;;;;20.64;59.32;100640.13;5065194;28;20040;-70
2023/06/24 02:00:26;;;;;;;2.03;1.48;;;;;;;20.78;59.22;100642.56;5065203;28;20032;-69
2023/06/24 02:02:54;;;;;;;1.80;1.13;;;;;;;20.77;58.33;100645.41;5064467;28;20060;-69
2023/06/24 02:05:20;;;;;;;5.95;0.70;;;;;;;20.76;59.14;100649.91;5065908;28;20036;-70
2023/06/24 02:07:49;;;;;;;2.58;1.02;;;;;;;20.67;59.84;100648.50;5067289;28;20385;-70
2023/06/24 02:10:16;;;;;;;1.50;0.90;;;;;;;20.59;60.75;100643.41;5072527;28;20511;-69
2023/06/24 02:12:45;;;;;;;3.63;0.80;;;;;;;20.44;61.02;100663.97;5068963;28;20040;-70
2023/06/24 02:15:10;;;;;;;1.88;0.75;;;;;;;20.36;61.51;100675.53;5061775;28;20380;-70
2023/06/24 02:17:37;;;;;;;1.42;0.88;;;;;;;20.37;62.15;100669.22;5065341;28;20476;-72
2023/06/24 02:20:08;;;;;;;2.65;0.90;;;;;;;20.47;60.57;100666.22;5060835;28;20139;-69
2023/06/24 02:22:35;;;;;;;1.80;0.88;;;;;;;20.69;59.16;100667.63;5066770;28;20545;-70
2023/06/24 02:25:02;;;;;;;2.13;0.80;;;;;;;20.73;59.08;100665.38;5069494;28;20087;-70
2023/06/24 02:27:29;;;;;;;2.55;1.20;;;;;;;20.70;59.50;100669.25;5060834;28;20063;-69
2023/06/24 02:29:54;;;;;;;4.07;0.95;;;;;;;20.70;59.62;100671.91;5062177;28;20039;-70
2023/06/24 02:32:20;;;;;;;3.60;1.17;;;;;;;20.70;59.49;100663.97;5057061;28;20032;-70
2023/06/24 02:34:46;;;;;;;1.67;1.02;;;;;;;20.83;59.07;100661.28;5058569;28;20470;-70
2023/06/24 02:37:11;;;;;;;2.58;0.98;;;;;;;20.87;59.18;100669.63;5062227;28;20052;-70
2023/06/24 02:39:43;;;;;;;2.10;1.23;;;;;;;20.90;60.71;100665.75;5051239;28;20044;-70
2023/06/24 02:42:09;;;;;;;2.05;0.80;;;;;;;20.75;61.34;100676.59;5057655;28;20044;-70
2023/06/24 02:44:35;;;;;;;2.45;1.30;;;;;;;20.64;61.48;100667.44;5057885;28;20109;-70
2023/06/24 02:47:00;;;;;;;2.47;1.23;;;;;;;20.63;61.73;100676.38;5064141;28;20046;-69
2023/06/24 02:49:27;;;;;;;1.40;0.88;;;;;;;20.63;62.30;100681.69;5063270;28;20029;-71
2023/06/24 02:51:53;;;;;;;2.45;1.15;;;;;;;20.63;61.91;100675.56;5060684;28;20546;-70
2023/06/24 02:54:19;;;;;;;2.92;1.58;;;;;;;20.59;61.84;100675.16;5059546;28;20510;-70
2023/06/24 02:56:44;;;;;;;7.72;0.95;;;;;;;20.57;62.24;100669.25;5069071;28;20118;-70
2023/06/24 02:59:10;;;;;;;3.63;0.98;;;;;;;20.56;62.36;100678.22;5064592;28;20037;-71
2023/06/24 03:01:39;;;;;;;2.80;1.50;;;;;;;20.56;62.33;100680.06;5053470;28;20041;-70
2023/06/24 03:04:05;;;;;;;1.88;1.10;;;;;;;20.54;62.51;100677.59;5056601;28;20088;-70
2023/06/24 03:06:32;;;;;;;1.60;1.00;;;;;;;20.50;61.79;100682.50;5052920;28;20500;-70
2023/06/24 03:08:58;;;;;;;1.90;0.70;;;;;;;21.08;56.66;100690.56;5064619;28;20033;-70
2023/06/24 03:11:25;;;;;;;1.17;0.80;;;;;;;21.33;56.26;100677.47;5061689;28;20032;-70
2023/06/24 03:13:51;;;;;;;3.25;0.77;;;;;;;21.31;56.30;100679.50;5059872;28;20035;-71
2023/06/24 03:16:16;;;;;;;1.67;0.80;;;;;;;21.29;56.88;100681.53;5067383;28;20028;-70
2023/06/24 03:18:42;;;;;;;2.90;0.88;;;;;;;21.22;57.96;100691.38;5064746;28;20040;-70
2023/06/24 03:21:09;;;;;;;4.75;0.80;;;;;;;21.09;58.94;100699.31;5061971;28;20036;-70
2023/06/24 03:23:34;;;;;;;4.10;1.92;;;;;;;21.01;58.57;100700.34;5053504;28;20045;-70
2023/06/24 03:26:00;;;;;;;2.00;0.70;;;;;;;21.04;57.42;100688.53;5059895;28;20357;-71
2023/06/24 03:28:26;;;;;;;1.25;0.60;;;;;;;21.43;54.57;100679.66;5059774;28;20037;-70
2023/06/24 03:30:51;;;;;;;2.95;0.68;;;;;;;21.99;52.26;100681.63;5064730;28;20050;-71
2023/06/24 03:33:17;;;;;;;1.92;0.85;;;;;;;22.05;52.79;100686.91;5067111;28;20044;-70
2023/06/24 03:35:43;;;;;;;2.50;0.50;;;;;;;21.89;54.36;100679.44;5061934;28;20532;-70
2023/06/24 03:38:08;;;;;;;1.20;0.70;;;;;;;21.62;55.82;100699.16;5070975;28;20067;-71
2023/06/24 03:40:34;;;;;;;1.42;0.70;;;;;;;21.43;57.97;100691.09;5068229;28;20488;-71
2023/06/24 03:43:00;;;;;;;1.88;1.00;;;;;;;21.41;56.46;100692.31;5068106;28;20512;-70
2023/06/24 03:45:25;;;;;;;3.08;0.60;;;;;;;21.48;55.48;100691.28;5066404;28;20578;-71
2023/06/24 03:47:51;;;;;;;1.20;0.47;;;;;;;21.79;53.42;100698.44;5060396;28;20055;-69
2023/06/24 03:50:16;;;;;;;1.40;0.40;;;;;;;22.09;51.87;100692.59;5071665;28;20024;-70
2023/06/24 03:52:44;;;;;;;0.65;0.35;;;;;;;22.28;50.80;100701.44;5065647;28;20041;-70
2023/06/24 03:55:09;;;;;;;1.88;0.60;;;;;;;22.24;51.71;100716.16;5065197;28;20042;-68
2023/06/24 03:57:35;;;;;;;1.60;0.60;;;;;;;22.25;50.39;100707.19;5060578;28;20115;-69
2023/06/24 04:00:00;;;;;;;0.95;0.30;;;;;;;22.71;47.96;100717.44;5063316;28;20029;-69
2023/06/24 04:02:26;;;;;;;2.47;0.50;;;;;;;22.89;47.58;100714.84;5059766;28;20029;-70
2023/06/24 04:04:52;;;;;;;0.63;0.40;;;;;;;22.93;47.94;100717.88;5068472;28;20169;-70
2023/06/24 04:07:26;;;;;;;0.80;0.30;;;;;;;22.94;47.58;100719.50;5065707;28;20025;-70
2023/06/24 04:09:54;;;;;;;1.13;0.30;;;;;;;23.00;47.40;100722.09;5070100;28;20024;-70
2023/06/24 04:12:20;;;;;;;1.52;0.40;;;;;;;22.97;47.34;100735.81;5065567;28;20083;-70
2023/06/24 04:14:45;;;;;;;2.60;0.30;;;;;;;22.94;47.56;100738.91;5066912;28;20028;-70
2023/06/24 04:17:11;;;;;;;1.90;0.70;;;;;;;22.84;48.58;100739.41;5062600;28;20480;-71
2023/06/24 04:19:36;;;;;;;1.63;0.60;;;;;;;22.77;48.65;100745.78;5064330;28;20026;-70
2023/06/24 04:22:02;;;;;;;0.82;0.28;;;;;;;22.91;47.78;100743.84;5064068;28;20036;-71
2023/06/24 04:24:27;;;;;;;1.55;0.60;;;;;;;22.99;47.73;100756.84;5067156;28;20029;-69
2023/06/24 04:26:53;;;;;;;1.25;0.40;;;;;;;22.95;47.42;100756.47;5064676;28;20047;-70
2023/06/24 04:29:18;;;;;;;1.33;0.50;;;;;;;22.90;48.11;100755.50;5065357;28;20086;-70
2023/06/24 04:31:43;;;;;;;1.52;0.47;;;;;;;22.91;48.29;100765.09;5067758;28;20029;-72
2023/06/24 04:34:09;;;;;;;1.33;0.30;;;;;;;23.08;47.57;100760.88;5064773;28;20040;-73
2023/06/24 04:36:35;;;;;;;0.80;0.30;;;;;;;23.21;47.28;100763.38;5066482;28;20036;-72
2023/06/24 04:39:00;;;;;;;0.98;0.30;;;;;;;23.22;47.68;100762.34;5065103;28;20435;-73
2023/06/24 04:41:26;;;;;;;2.15;0.30;;;;;;;23.22;48.59;100772.16;5064141;28;20098;-73
2023/06/24 04:43:51;;;;;;;2.75;0.30;;;;;;;23.24;47.81;100765.59;5064200;28;20062;-72
2023/06/24 04:46:17;;;;;;;0.93;0.47;;;;;;;23.33;47.17;100771.44;5063054;28;20044;-73
2023/06/24 04:48:42;;;;;;;0.80;0.30;;;;;;;23.48;46.73;100777.22;5065941;28;20043;-73
2023/06/24 04:51:08;;;;;;;1.42;0.40;;;;;;;23.56;46.62;100784.94;5067730;28;20487;-74
2023/06/24 04:53:33;;;;;;;1.30;0.38;;;;;;;23.57;46.51;100777.75;5067565;28;20412;-73
2023/06/24 04:55:59;;;;;;;2.05;0.30;;;;;;;23.52;47.25;100782.91;5068382;28;20069;-72
2023/06/24 04:58:24;;;;;;;0.90;0.40;;;;;;;23.51;47.27;100790.06;5062928;28;20041;-72
2023/06/24 05:00:50;;;;;;;1.08;0.47;;;;;;;23.49;47.40;100778.84;5061062;28;20056;-72
2023/06/24 05:03:15;;;;;;;0.75;0.30;;;;;;;23.56;47.09;100784.09;5054720;28;20040;-72
2023/06/24 05:05:41;;;;;;;3.15;0.30;;;;;;;23.60;47.04;100788.75;5063826;28;20489;-71
2023/06/24 05:08:06;;;;;;;3.08;0.80;;;;;;;23.64;46.86;100795.25;5062899;28;20571;-71
2023/06/24 05:10:32;;;;;;;1.52;0.50;;;;;;;23.68;46.69;100792.94;5059753;28;21057;-68
2023/06/24 05:12:57;;;;;;;1.15;0.28;;;;;;;23.81;45.87;100798.13;5058261;28;20543;-68
2023/06/24 05:15:22;;;;;;;1.92;0.30;;;;;;;23.93;46.51;100796.34;5058802;28;20032;-68
2023/06/24 05:17:48;;;;;;;1.02;0.20;;;;;;;23.96;45.79;100787.91;5063784;28;20029;-68
2023/06/24 05:20:13;;;;;;;0.50;0.20;;;;;;;24.11;45.25;100806.13;5066307;28;20404;-67
2023/06/24 05:22:39;;;;;;;0.63;0.35;;;;;;;24.02;45.58;100804.81;5064385;28;20416;-67
2023/06/24 05:25:05;;;;;;;2.05;0.65;;;;;;;23.99;46.11;100799.94;5066245;28;20049;-67
2023/06/24 05:27:30;;;;;;;1.23;0.30;;;;;;;24.06;45.72;100812.13;5058033;28;20033;-67
2023/06/24 05:29:56;;;;;;;1.85;0.30;;;;;;;24.14;45.75;100813.66;5062832;28;20040;-68
2023/06/24 05:32:21;;;;;;;1.92;0.30;;;;;;;24.28;46.41;100827.63;5069243;28;20044;-67
2023/06/24 05:34:47;;;;;;;1.80;0.60;;;;;;;24.39;47.03;100818.88;5067921;28;20031;-69
2023/06/24 05:37:13;;;;;;;1.00;0.50;;;;;;;24.36;46.96;100837.97;5073708;28;20032;-67
2023/06/24 05:39:38;;;;;;;1.45;0.80;;;;;;;24.32;47.53;100837.63;5059309;28;20047;-68
2023/06/24 05:42:04;;;;;;;1.15;0.60;;;;;;;24.10;47.77;100847.09;5055839;28;20384;-68
2023/06/24 05:44:29;;;;;;;4.13;0.50;;;;;;;24.14;47.87;100857.06;5060688;28;20028;-67
2023/06/24 05:46:55;;;;;;;1.85;0.50;;;;;;;24.24;47.58;100840.56;5066873;28;20028;-68
2023/06/24 05:49:20;;;;;;;1.48;0.40;;;;;;;24.24;48.02;100850.38;5074961;28;20036;-67
2023/06/24 05:51:45;;;;;;;1.33;0.50;;;;;;;24.13;48.14;100858.09;5051134;28;20046;-69
2023/06/24 05:54:11;;;;;;;1.20;0.47;;;;;;;23.96;48.35;100857.09;5056293;28;20116;-67
2023/06/24 05:56:37;;;;;;;1.48;0.50;;;;;;;23.79;48.77;100859.53;5050448;28;20480;-67
2023/06/24 05:59:02;;;;;;;1.42;0.50;;;;;;;23.72;48.94;100855.31;5057347;28;20032;-67
2023/06/24 06:01:28;;;;;;;1.58;0.52;;;;;;;23.65;49.37;100865.22;5063350;28;20474;-68
2023/06/24 06:03:53;;;;;;;1.50;0.57;;;;;;;23.55;50.24;100863.09;5058444;28;20068;-67
2023/06/24 06:06:19;;;;;;;0.90;0.40;;;;;;;23.44;49.87;100864.59;5063247;28;20028;-69
2023/06/24 06:08:44;;;;;;;1.45;0.55;;;;;;;23.42;50.29;100873.81;5059421;28;20044;-67
2023/06/24 06:11:09;;;;;;;4.22;0.40;;;;;;;23.35;50.32;100868.53;5063382;28;20036;-67
2023/06/24 06:13:35;;;;;;;1.77;0.57;;;;;;;23.33;50.38;100869.78;5052457;28;20036;-67
2023/06/24 06:16:00;;;;;;;2.05;0.63;;;;;;;23.29;50.67;100868.59;5067531;28;20017;-68
2023/06/24 06:18:26;;;;;;;1.00;0.47;;;;;;;23.29;50.60;100873.91;5060831;28;20036;-67
2023/06/24 06:20:51;;;;;;;2.38;0.68;;;;;;;23.33;51.10;100873.25;5055835;28;20060;-67
2023/06/24 06:23:17;;;;;;;2.25;0.50;;;;;;;23.28;51.45;100877.59;5053531;28;20396;-67
2023/06/24 06:25:43;;;;;;;1.27;0.60;;;;;;;23.30;51.52;100887.00;5068389;28;20488;-65
2023/06/24 06:28:08;;;;;;;4.97;0.70;;;;;;;23.24;51.73;100887.84;5056363;28;20032;-66
2023/06/24 06:30:34;;;;;;;1.85;0.75;;;;;;;23.20;51.98;100881.34;5066573;28;20472;-66
2023/06/24 06:33:00;;;;;;;2.95;0.80;;;;;;;23.19;51.74;100885.03;5053930;28;20103;-68
2023/06/24 06:35:25;;;;;;;2.35;0.80;;;;;;;23.17;51.85;100892.41;5053316;28;20108;-66
2023/06/24 06:37:54;;;;;;;1.35;0.60;;;;;;;23.18;52.15;100884.22;5075894;28;20024;-67
2023/06/24 06:40:23;;;;;;;1.70;0.70;;;;;;;23.24;52.40;100892.38;5058830;28;20484;-66
2023/06/24 06:42:48;;;;;;;3.53;0.52;;;;;;;23.33;52.44;100885.75;5057102;28;20112;-66
2023/06/24 06:45:14;;;;;;;0.90;0.40;;;;;;;23.43;52.54;100886.88;5055492;28;20124;-67
2023/06/24 06:47:40;;;;;;;3.85;1.10;;;;;;;23.53;52.59;100880.25;5056209;28;20033;-66
2023/06/24 06:50:06;;;;;;;1.40;0.45;;;;;;;23.74;52.27;100882.50;5056019;28;20033;-66
2023/06/24 06:52:31;;;;;;;4.25;0.75;;;;;;;23.83;52.04;100876.69;5055821;28;20139;-66
2023/06/24 06:54:58;;;;;;;5.18;0.85;;;;;;;23.96;51.16;100873.06;5058403;28;20606;-66
2023/06/24 06:57:23;;;;;;;5.00;0.50;;;;;;;24.04;50.56;100878.09;5060525;28;20111;-67
2023/06/24 06:59:50;;;;;;;1.38;0.40;;;;;;;24.15;50.41;100876.50;5061712;28;20123;-67
2023/06/24 07:02:16;;;;;;;2.42;0.60;;;;;;;24.25;50.06;100868.84;5065313;28;20361;-66
2023/06/24 07:04:42;;;;;;;1.35;0.45;;;;;;;24.42;49.40;100871.69;5068186;28;20535;-67
2023/06/24 07:07:08;;;;;;;2.85;0.40;;;;;;;24.54;49.55;100879.72;5064888;28;20083;-67
2023/06/24 07:09:34;;;;;;;1.10;0.40;;;;;;;24.71;48.92;100862.84;5068061;28;20063;-68
2023/06/24 07:11:59;;;;;;;2.00;0.50;;;;;;;24.76;48.45;100876.31;5062120;28;20384;-67
2023/06/24 07:14:24;;;;;;;1.58;0.60;;;;;;;24.78;48.43;100873.41;5074927;28;20082;-67
2023/06/24 07:16:50;;;;;;;0.88;0.30;;;;;;;24.83;47.93;100880.72;5067564;28;20120;-67
2023/06/24 07:19:16;;;;;;;0.55;0.25;;;;;;;24.91;47.50;100889.22;5062687;28;20025;-67
2023/06/24 07:21:41;;;;;;;1.23;0.30;;;;;;;25.05;47.85;100884.50;5069114;28;20050;-72
2023/06/24 07:24:07;;;;;;;0.95;0.30;;;;;;;25.04;46.61;100888.22;5066618;28;20033;-68
2023/06/24 07:26:32;;;;;;;0.70;0.22;;;;;;;25.08;46.75;100886.72;5066099;28;20033;-67
2023/06/24 07:28:58;;;;;;;0.60;0.22;;;;;;;25.14;46.21;100883.13;5067832;28;20376;-67
2023/06/24 07:31:24;;;;;;;0.80;0.28;;;;;;;25.27;45.77;100882.91;5065725;28;20032;-66
2023/06/24 07:33:49;;;;;;;0.60;0.30;;;;;;;25.29;45.76;100880.00;5053972;28;20051;-66
2023/06/24 07:36:14;;;;;;;0.82;0.30;;;;;;;25.34;46.20;100883.63;5072001;28;20388;-66
2023/06/24 07:38:40;;;;;;;0.75;0.30;;;;;;;25.43;45.89;100874.22;5070404;28;20029;-67
2023/06/24 07:41:05;;;;;;;6.68;0.40;;;;;;;25.45;45.72;100874.81;5070368;28;20073;-68
2023/06/24 07:43:31;;;;;;;1.30;0.47;;;;;;;25.58;45.63;100875.59;5063012;28;20079;-67
2023/06/24 07:45:56;;;;;;;0.50;0.20;;;;;;;25.62;45.92;100882.09;5062297;28;20025;-68
2023/06/24 07:48:22;;;;;;;0.90;0.25;;;;;;;25.59;45.46;100863.88;5053429;28;20088;-68
2023/06/24 07:50:47;;;;;;;0.40;0.20;;;;;;;25.88;45.96;100862.13;5055707;28;20021;-68
2023/06/24 07:53:13;;;;;;;1.10;0.30;;;;;;;25.97;45.82;100869.53;5064200;28;20253;-66
2023/06/24 07:55:38;;;;;;;1.60;0.30;;;;;;;25.97;45.87;100863.38;5073067;28;20081;-67
2023/06/24 07:58:04;;;;;;;2.13;0.30;;;;;;;26.43;46.52;100865.91;5068753;28;20024;-66
2023/06/24 08:00:30;;;;;;;0.50;0.20;;;;;;;26.25;44.85;100863.41;5073635;28;20519;-66
2023/06/24 08:02:57;;;;;;;1.40;0.20;;;;;;;26.33;44.46;100860.38;5075399;28;20128;-67
2023/06/24 08:05:23;;;;;;;0.50;0.20;;;;;;;26.31;43.82;100869.69;5069564;28;20426;-68
2023/06/24 08:07:51;;;;;;;1.60;0.20;;;;;;;26.30;44.34;100873.38;5068132;28;20032;-67
2023/06/24 08:10:16;;;;;;;0.90;0.20;;;;;;;26.51;43.88;100875.38;5076236;28;20169;-66
2023/06/24 08:12:42;;;;;;;0.50;0.20;;;;;;;26.59;43.37;100855.47;5070306;28;20024;-66
2023/06/24 08:15:08;;;;;;;1.35;0.20;;;;;;;26.73;43.49;100854.94;5071031;28;20054;-65
2023/06/24 08:17:33;;;;;;;1.27;0.20;;;;;;;27.07;43.49;100860.31;5072811;28;20052;-66
2023/06/24 08:19:58;;;;;;;1.33;0.25;;;;;;;27.26;42.83;100853.66;5076576;28;20454;-66
2023/06/24 08:22:24;;;;;;;0.55;0.20;;;;;;;27.17;42.41;100847.09;5077002;28;20533;-66
2023/06/24 08:24:49;;;;;;;0.20;0.10;;;;;;;27.12;41.23;100841.69;5065916;28;20028;-66
2023/06/24 08:27:15;;;;;;;0.30;0.10;;;;;;;27.32;41.73;100854.56;5065498;28;20452;-66
2023/06/24 08:29:40;;;;;;;0.50;0.20;;;;;;;27.35;41.23;100862.09;5071758;28;20032;-66
2023/06/24 08:32:06;;;;;;;1.02;0.20;;;;;;;27.28;41.39;100851.56;5068489;28;20028;-67
2023/06/24 08:34:33;;;;;;;0.20;0.10;;;;;;;27.26;40.29;100851.00;5074029;28;20033;-65
2023/06/24 08:36:59;;;;;;;0.32;0.10;;;;;;;27.23;40.42;100843.44;5065877;28;20077;-65
2023/06/24 08:39:25;;;;;;;1.40;0.10;;;;;;;27.36;40.48;100843.13;5078266;28;20119;-66
2023/06/24 08:41:50;;;;;;;1.40;0.10;;;;;;;27.26;40.16;100847.50;5070426;28;20124;-66
2023/06/24 08:44:16;;;;;;;0.35;0.10;;;;;;;27.32;39.87;100839.31;5082419;28;20387;-66
2023/06/24 08:46:41;;;;;;;1.45;0.15;;;;;;;27.36;39.89;100837.75;5064879;28;20431;-66
2023/06/24 08:49:22;;;;;;;0.38;0.20;;;;;;;27.41;40.73;100843.16;5067360;28;20032;-66
2023/06/24 08:51:58;;;;;;;0.60;0.10;;;;;;;27.76;39.98;100847.41;5061315;28;20024;-66
2023/06/24 08:54:25;;;;;;;0.50;0.20;;;;;;;27.58;40.25;100845.00;5076509;28;20021;-66
2023/06/24 08:56:51;;;;;;;0.40;0.10;;;;;;;27.79;40.71;100840.75;5066195;28;20074;-66
2023/06/24 08:59:20;;;;;;;1.10;0.20;;;;;;;27.77;39.88;100834.84;5071990;28;20038;-66
2023/06/24 09:01:50;;;;;;;4.18;0.20;;;;;;;27.66;39.84;100849.94;5072615;28;20400;-66
2023/06/24 09:04:15;;;;;;;1.55;0.20;;;;;;;27.49;40.48;100828.56;5072005;28;20079;-66
2023/06/24 09:06:41;;;;;;;0.40;0.13;;;;;;;27.47;40.14;100829.84;5076635;28;20060;-66
2023/06/24 09:09:18;;;;;;;1.17;0.20;;;;;;;27.44;39.87;100834.63;5074745;28;20111;-66
2023/06/24 09:11:53;;;;;;;0.50;0.10;;;;;;;27.50;40.00;100829.34;5063304;28;20053;-67
2023/06/24 09:14:19;;;;;;;1.27;0.20;;;;;;;27.85;40.32;100823.69;5066133;28;20137;-67
2023/06/24 09:17:01;;;;;;;0.32;0.10;;;;;;;28.18;39.60;100828.88;5076124;28;20523;-68
2023/06/24 09:19:32;;;;;;;1.73;0.15;;;;;;;28.16;39.70;100840.91;5070601;28;20089;-68
2023/06/24 09:22:06;;;;;;;0.50;0.10;;;;;;;28.02;38.95;100822.53;5066121;28;20375;-67
2023/06/24 09:24:35;;;;;;;1.60;0.20;;;;;;;28.15;39.89;100824.03;5072570;28;20135;-66
2023/06/24 09:27:01;;;;;;;0.35;0.10;;;;;;;28.16;39.01;100827.50;5070924;28;20441;-68
2023/06/24 09:29:36;;;;;;;0.68;0.10;;;;;;;28.10;38.69;100826.63;5097157;28;20032;-68
2023/06/24 09:32:05;;;;;;;0.20;0.10;;;;;;;28.03;38.67;100824.16;5073581;28;20127;-67
2023/06/24 09:34:31;;;;;;;5.28;0.15;;;;;;;28.06;38.65;100829.00;5078923;28;20033;-67
2023/06/24 09:36:58;;;;;;;0.63;0.10;;;;;;;27.86;39.05;100830.66;5087126;28;20021;-67
2023/06/24 09:39:31;;;;;;;1.48;0.10;;;;;;;27.88;38.70;100834.72;5075263;28;20449;-66
2023/06/24 09:42:01;;;;;;;0.20;0.08;;;;;;;27.91;39.10;100820.78;5075273;28;20521;-67
2023/06/24 09:44:27;;;;;;;0.45;0.10;;;;;;;28.12;38.97;100824.53;5078725;28;20032;-66
2023/06/24 09:46:54;;;;;;;0.20;0.10;;;;;;;28.50;38.26;100825.44;5068170;28;20029;-67
2023/06/24 09:49:19;;;;;;;0.70;0.10;;;;;;;28.41;37.87;100825.09;5068553;28;20021;-67
2023/06/24 09:51:47;;;;;;;0.32;0.10;;;;;;;28.42;38.53;100811.44;5068273;28;20043;-66
2023/06/24 09:54:14;;;;;;;0.38;0.10;;;;;;;28.52;37.58;100824.13;5079048;28;20031;-67
2023/06/24 09:56:44;;;;;;;1.85;0.10;;;;;;;28.29;37.41;100836.00;5072041;28;20031;-67
2023/06/24 09:59:12;;;;;;;1.90;0.10;;;;;;;28.19;37.50;100821.66;5072390;28;20032;-67
2023/06/24 10:01:43;;;;;;;1.10;0.03;;;;;;;28.25;37.75;100818.81;5074900;28;20042;-67
2023/06/24 10:04:10;;;;;;;0.22;0.05;;;;;;;28.60;38.25;100821.00;5068629;28;20430;-67
2023/06/24 10:06:35;;;;;;;0.20;0.00;;;;;;;28.47;37.90;100810.69;5074949;28;20108;-67
2023/06/24 10:09:02;;;;;;;1.63;0.03;;;;;;;28.63;37.52;100825.84;5072575;28;20081;-67
2023/06/24 10:11:28;;;;;;;0.57;0.10;;;;;;;28.61;36.96;100819.94;5076001;28;20071;-67
2023/06/24 10:13:54;;;;;;;0.22;0.10;;;;;;;28.64;37.15;100821.28;5078898;28;20034;-66
2023/06/24 10:16:20;;;;;;;0.20;0.00;;;;;;;28.54;36.58;100803.25;5073646;28;20139;-65
2023/06/24 10:18:46;;;;;;;3.30;0.10;;;;;;;28.55;36.20;100804.88;5081359;28;20515;-67
2023/06/24 10:21:12;;;;;;;0.80;0.00;;;;;;;28.65;35.25;100804.16;5079914;28;20054;-67
2023/06/24 10:24:01;;;;;;;0.63;0.00;;;;;;;28.70;34.56;100809.56;5081051;28;20021;-66
2023/06/24 10:26:30;;;;;;;5.97;0.03;;;;;;;28.70;35.38;100814.91;5063093;28;20040;-67
2023/06/24 10:29:04;;;;;;;0.63;0.00;;;;;;;28.66;34.87;100814.63;5075470;28;20039;-66
2023/06/24 10:31:39;;;;;;;0.52;0.00;;;;;;;28.44;35.65;100799.66;5081799;28;20052;-67
2023/06/24 10:34:19;;;;;;;0.00;0.00;;;;;;;28.58;34.94;100811.59;5086096;28;20093;-66
2023/06/24 10:36:55;;;;;;;1.95;0.00;;;;;;;28.61;35.89;100801.16;5072053;28;20132;-67
2023/06/24 10:39:45;;;;;;;0.70;0.10;;;;;;;28.73;35.24;100814.41;5085626;28;20097;-67
2023/06/24 10:42:30;;;;;;;1.00;0.20;;;;;;;28.65;34.91;100802.28;5067027;28;20044;-67
2023/06/24 10:45:00;;;;;;;0.63;0.05;;;;;;;28.69;36.11;100800.69;5058778;28;20028;-67
2023/06/24 10:47:27;;;;;;;0.10;0.00;;;;;;;28.72;35.88;100791.34;5067673;28;20384;-66
2023/06/24 10:49:53;;;;;;;0.17;0.00;;;;;;;28.73;35.47;100793.75;5067077;28;20024;-67
2023/06/24 10:52:23;;;;;;;0.45;0.05;;;;;;;28.78;34.96;100800.22;5078675;28;20034;-67
2023/06/24 10:54:50;;;;;;;0.00;0.00;;;;;;;28.85;34.96;100790.09;5071462;28;20369;-66
2023/06/24 10:57:22;;;;;;;1.20;0.00;;;;;;;28.69;34.71;100789.97;5072101;28;20601;-67
2023/06/24 10:59:48;;;;;;;1.95;0.00;;;;;;;28.72;35.36;100785.97;5070552;28;20032;-67
2023/06/24 11:02:15;;;;;;;0.10;0.00;;;;;;;28.89;35.54;100780.47;5070434;28;20055;-66
2023/06/24 11:04:48;;;;;;;3.15;0.05;;;;;;;28.87;34.40;100802.19;5076479;28;20035;-66
2023/06/24 11:07:16;;;;;;;0.20;0.00;;;;;;;28.72;34.96;100794.03;5074345;28;20036;-66
2023/06/24 11:09:44;;;;;;;0.00;0.00;;;;;;;28.62;35.62;100777.84;5065183;28;20389;-67
2023/06/24 11:12:10;;;;;;;0.20;0.00;;;;;;;28.78;35.66;100784.94;5070276;28;20081;-67
2023/06/24 11:14:38;;;;;;;0.00;0.00;;;;;;;28.64;34.93;100776.53;5070485;28;20036;-67
2023/06/24 11:17:04;;;;;;;0.03;0.00;;;;;;;28.58;35.74;100769.50;5078848;28;20095;-67
2023/06/24 11:19:35;;;;;;;0.00;0.00;;;;;;;28.58;35.24;100774.88;5075541;28;20506;-66
2023/06/24 11:22:01;;;;;;;0.05;0.00;;;;;;;28.25;35.44;100772.44;5083022;28;20556;-66
2023/06/24 11:24:30;;;;;;;0.10;0.00;;;;;;;28.34;35.84;100773.63;5076138;28;20033;-67
2023/06/24 11:26:55;;;;;;;1.45;0.00;;;;;;;28.34;35.55;100771.75;5076020;28;20062;-66